Time;durP1;ratioP1;P1;durP2;ratioP2;P2;SDS_P1;SDS_P2;PMS_P1;PMS_P2;Temp;Humidity;BMP_temperature;BMP_pressure;BME280_temperature;BME280_humidity;BME280_pressure;Samples;Min_cycle;Max_cycle;Signal;HPM_P1;HPM_P2
2021/03/26 00:01:42;;;;;;;;;;;6.30;99.90;;;;;;5077643;28;20352;-78
2021/03/26 00:04:10;;;;;;;;;;;6.40;99.90;;;;;;5077767;28;20049;-78
2021/03/26 00:06:38;;;;;;;;;;;6.40;99.90;;;;;;5076999;28;19944;-77
2021/03/26 00:09:04;;;;;;;;;;;6.40;99.90;;;;;;5076526;28;19909;-78
2021/03/26 00:11:30;;;;;;;;;;;6.30;99.90;;;;;;5076596;28;19905;-76
2021/03/26 00:13:56;;;;;;;;;;;6.30;99.90;;;;;;5076179;28;19904;-78
2021/03/26 00:16:21;;;;;;;;;;;6.40;99.90;;;;;;5076749;28;19909;-79
2021/03/26 00:18:47;;;;;;;;;;;6.40;99.90;;;;;;5073665;28;19913;-78
2021/03/26 00:21:13;;;;;;;;;;;6.40;99.90;;;;;;5068736;28;20272;-78
2021/03/26 00:23:39;;;;;;;;;;;6.40;99.90;;;;;;5076124;28;19908;-78
2021/03/26 00:26:04;;;;;;;;;;;6.40;99.90;;;;;;5076166;28;19904;-78
2021/03/26 00:28:30;;;;;;;;;;;6.50;99.90;;;;;;5076124;28;19904;-80
2021/03/26 00:30:56;;;;;;;;;;;6.40;99.90;;;;;;5076489;28;19965;-79
2021/03/26 00:33:22;;;;;;;;;;;6.30;99.90;;;;;;5077754;28;19916;-78
2021/03/26 00:35:47;;;;;;;;;;;6.20;99.90;;;;;;5075899;28;19905;-77
2021/03/26 00:38:13;;;;;;;;;;;6.20;99.90;;;;;;5076939;28;20368;-78
2021/03/26 00:40:38;;;;;;;;;;;6.30;99.90;;;;;;5076171;28;19908;-79
2021/03/26 00:43:04;;;;;;;;;;;6.20;99.90;;;;;;5076709;28;19908;-77
2021/03/26 00:45:31;;;;;;;;;;;6.20;99.90;;;;;;5075664;28;19904;-77
2021/03/26 00:47:57;;;;;;;;;;;6.20;99.90;;;;;;5075686;28;19904;-76
2021/03/26 00:50:34;;;;;;;;;;;6.20;99.90;;;;;;5076467;28;20434;-79
2021/03/26 00:53:01;;;;;;;;;;;6.20;99.90;;;;;;5075473;28;20391;-77
2021/03/26 00:55:26;;;;;;;;;;;6.20;99.90;;;;;;5075956;28;19904;-78
2021/03/26 00:57:52;;;;;;;;;;;6.30;99.90;;;;;;5075524;28;19926;-78
2021/03/26 01:00:20;;;;;;;;;;;6.30;99.90;;;;;;5076981;28;19939;-77
2021/03/26 01:02:45;;;;;;;;;;;6.30;99.90;;;;;;5076708;28;19912;-78
2021/03/26 01:05:13;;;;;;;;;;;6.40;99.90;;;;;;5075357;28;20401;-78
2021/03/26 01:07:39;;;;;;;;;;;6.30;99.90;;;;;;5075587;28;20297;-78
2021/03/26 01:10:08;;;;;;;;;;;6.30;99.90;;;;;;5076336;28;20310;-78
2021/03/26 01:12:34;;;;;;;;;;;6.30;99.90;;;;;;5075055;28;19904;-79
2021/03/26 01:15:00;;;;;;;;;;;6.30;99.90;;;;;;5077318;28;19912;-79
2021/03/26 01:17:25;;;;;;;;;;;6.30;99.90;;;;;;5077545;28;19910;-79
2021/03/26 01:19:51;;;;;;;;;;;6.30;99.90;;;;;;5076248;28;19995;-79
2021/03/26 01:22:16;;;;;;;;;;;6.30;99.90;;;;;;5077934;28;19915;-80
2021/03/26 01:24:42;;;;;;;;;;;6.30;99.90;;;;;;5074477;28;20378;-77
2021/03/26 01:27:07;;;;;;;;;;;6.30;99.90;;;;;;5075661;28;20318;-80
2021/03/26 01:29:33;;;;;;;;;;;6.20;99.90;;;;;;5075506;28;19948;-78
2021/03/26 01:31:58;;;;;;;;;;;6.20;99.90;;;;;;5075503;28;19955;-77
2021/03/26 01:34:24;;;;;;;;;;;6.10;99.90;;;;;;5073686;28;19905;-78
2021/03/26 01:36:50;;;;;;;;;;;6.00;99.90;;;;;;5074678;28;19908;-78
2021/03/26 01:39:15;;;;;;;;;;;6.00;99.90;;;;;;5074295;28;19909;-77
2021/03/26 01:41:42;;;;;;;;;;;5.90;99.90;;;;;;5075051;28;19904;-78
2021/03/26 01:44:08;;;;;;;;;;;5.80;99.90;;;;;;5073749;28;19911;-78
2021/03/26 01:46:35;;;;;;;;;;;5.80;99.90;;;;;;5074017;28;20374;-77
2021/03/26 01:49:01;;;;;;;;;;;5.70;99.90;;;;;;5074988;28;19908;-76
2021/03/26 01:51:29;;;;;;;;;;;5.60;99.90;;;;;;5075113;28;19909;-79
2021/03/26 01:53:54;;;;;;;;;;;5.60;99.90;;;;;;5075331;28;19904;-78
2021/03/26 01:56:20;;;;;;;;;;;5.50;99.90;;;;;;5074186;28;20426;-78
2021/03/26 01:58:46;;;;;;;;;;;5.50;99.90;;;;;;5075740;28;19904;-78
2021/03/26 02:01:22;;;;;;;;;;;5.50;99.90;;;;;;5073899;28;20256;-77
2021/03/26 02:04:08;;;;;;;;;;;5.40;99.90;;;;;;5073702;28;20375;-76
2021/03/26 02:06:35;;;;;;;;;;;5.40;99.90;;;;;;5073506;28;19912;-77
2021/03/26 02:09:05;;;;;;;;;;;5.30;99.90;;;;;;5074210;28;19904;-78
2021/03/26 02:11:51;;;;;;;;;;;5.30;99.90;;;;;;5074060;28;19911;-78
2021/03/26 02:14:21;;;;;;;;;;;5.20;99.90;;;;;;5072218;28;19905;-78
2021/03/26 02:16:47;;;;;;;;;;;5.20;99.90;;;;;;5074103;28;19967;-78
2021/03/26 02:19:33;;;;;;;;;;;5.20;99.90;;;;;;5074802;28;19951;-78
2021/03/26 02:21:58;;;;;;;;;;;5.10;99.90;;;;;;5073165;28;19908;-78
2021/03/26 02:24:26;;;;;;;;;;;5.10;99.90;;;;;;5074368;28;19999;-77
2021/03/26 02:26:52;;;;;;;;;;;5.10;99.90;;;;;;5074463;28;20308;-78
2021/03/26 02:29:23;;;;;;;;;;;5.10;99.90;;;;;;5074791;28;19991;-77
2021/03/26 02:31:50;;;;;;;;;;;5.10;99.90;;;;;;5074933;28;19919;-78
2021/03/26 02:34:15;;;;;;;;;;;5.00;99.90;;;;;;5075264;28;19968;-78
2021/03/26 02:36:46;;;;;;;;;;;5.10;99.90;;;;;;5076729;28;19958;-78
2021/03/26 02:39:14;;;;;;;;;;;5.00;99.90;;;;;;5075442;28;19905;-78
2021/03/26 02:41:42;;;;;;;;;;;5.00;99.90;;;;;;5076343;28;19939;-80
2021/03/26 02:44:27;;;;;;;;;;;5.00;99.90;;;;;;5074865;28;19904;-79
2021/03/26 02:46:55;;;;;;;;;;;5.00;99.90;;;;;;5075080;28;20022;-77
2021/03/26 02:49:21;;;;;;;;;;;5.00;99.90;;;;;;5073905;28;19904;-77
2021/03/26 02:51:57;;;;;;;;;;;5.00;99.90;;;;;;5074157;28;19954;-77
2021/03/26 02:54:27;;;;;;;;;;;4.90;99.90;;;;;;5073768;28;20068;-77
2021/03/26 02:56:52;;;;;;;;;;;4.90;99.90;;;;;;5075278;28;19911;-77
2021/03/26 02:59:31;;;;;;;;;;;4.90;99.90;;;;;;5075046;28;19905;-78
2021/03/26 03:01:56;;;;;;;;;;;4.70;99.90;;;;;;5075417;28;19908;-79
2021/03/26 03:04:25;;;;;;;;;;;4.80;99.90;;;;;;5074008;28;19950;-78
2021/03/26 03:06:53;;;;;;;;;;;4.70;99.90;;;;;;5075164;28;20261;-76
2021/03/26 03:09:20;;;;;;;;;;;4.80;99.90;;;;;;5074565;28;20359;-78
2021/03/26 03:11:52;;;;;;;;;;;4.70;99.90;;;;;;5077002;28;19931;-79
2021/03/26 03:14:18;;;;;;;;;;;4.70;99.90;;;;;;5076872;28;19904;-78
2021/03/26 03:16:55;;;;;;;;;;;4.70;99.90;;;;;;5076182;28;19905;-78
2021/03/26 03:19:33;;;;;;;;;;;4.70;99.90;;;;;;5073940;28;19927;-77
2021/03/26 03:22:01;;;;;;;;;;;4.70;99.90;;;;;;5073976;28;20007;-77
2021/03/26 03:24:32;;;;;;;;;;;4.70;99.90;;;;;;5073571;28;19951;-78
2021/03/26 03:27:03;;;;;;;;;;;4.60;99.90;;;;;;5074788;28;19904;-77
2021/03/26 03:29:47;;;;;;;;;;;4.70;99.90;;;;;;5073684;28;19912;-78
2021/03/26 03:32:12;;;;;;;;;;;4.60;99.90;;;;;;5073981;28;19954;-79
2021/03/26 03:34:39;;;;;;;;;;;4.60;99.90;;;;;;5073355;28;19905;-78
2021/03/26 03:37:22;;;;;;;;;;;4.50;99.90;;;;;;5075377;28;19910;-81
2021/03/26 03:39:53;;;;;;;;;;;4.50;99.90;;;;;;5074252;28;20012;-78
2021/03/26 03:42:21;;;;;;;;;;;4.50;99.90;;;;;;5073753;28;19995;-78
2021/03/26 03:44:46;;;;;;;;;;;4.50;99.90;;;;;;5076311;28;20007;-77
2021/03/26 03:47:31;;;;;;;;;;;4.50;99.90;;;;;;5077283;28;19973;-78
2021/03/26 03:50:09;;;;;;;;;;;4.50;99.90;;;;;;5077461;28;19904;-77
2021/03/26 03:52:37;;;;;;;;;;;4.50;99.90;;;;;;5076984;28;19905;-80
2021/03/26 03:55:11;;;;;;;;;;;4.50;99.90;;;;;;5076714;28;20333;-78
2021/03/26 03:57:42;;;;;;;;;;;4.40;99.90;;;;;;5079440;28;19905;-78
2021/03/26 04:00:23;;;;;;;;;;;4.40;99.90;;;;;;5076549;28;19904;-78
2021/03/26 04:03:07;;;;;;;;;;;4.40;99.90;;;;;;5080167;28;19908;-78
2021/03/26 04:05:35;;;;;;;;;;;4.50;99.90;;;;;;5080160;28;19908;-78
2021/03/26 04:08:05;;;;;;;;;;;4.50;99.90;;;;;;5079893;28;20004;-79
2021/03/26 04:10:36;;;;;;;;;;;4.60;99.90;;;;;;5078948;28;19908;-78
2021/03/26 04:13:04;;;;;;;;;;;4.50;99.90;;;;;;5079538;28;19904;-78
2021/03/26 04:15:36;;;;;;;;;;;4.50;99.90;;;;;;5078881;28;19976;-78
2021/03/26 04:18:07;;;;;;;;;;;4.40;99.90;;;;;;5080292;28;19904;-78
2021/03/26 04:20:35;;;;;;;;;;;4.40;99.90;;;;;;5076324;28;19958;-77
2021/03/26 04:23:08;;;;;;;;;;;4.40;99.90;;;;;;5075893;28;19908;-76
2021/03/26 04:25:36;;;;;;;;;;;4.30;99.90;;;;;;5075493;28;19954;-78
2021/03/26 04:28:14;;;;;;;;;;;4.30;99.90;;;;;;5076954;28;20313;-81
2021/03/26 04:30:46;;;;;;;;;;;4.30;99.90;;;;;;5076984;28;19955;-79
2021/03/26 04:33:12;;;;;;;;;;;4.30;99.90;;;;;;5075702;28;20367;-81
2021/03/26 04:35:38;;;;;;;;;;;4.20;99.90;;;;;;5074851;28;20018;-78
2021/03/26 04:38:03;;;;;;;;;;;4.20;99.90;;;;;;5076619;28;19967;-78
2021/03/26 04:40:34;;;;;;;;;;;4.10;99.90;;;;;;5075685;28;19953;-77
2021/03/26 04:43:09;;;;;;;;;;;4.10;99.90;;;;;;5076608;28;19908;-77
2021/03/26 04:45:41;;;;;;;;;;;4.10;99.90;;;;;;5074600;28;19904;-78
2021/03/26 04:48:07;;;;;;;;;;;4.10;99.90;;;;;;5076706;28;19947;-77
2021/03/26 04:50:38;;;;;;;;;;;4.10;99.90;;;;;;5077343;28;19912;-78
2021/03/26 04:53:09;;;;;;;;;;;4.10;99.90;;;;;;5077128;28;19912;-77
2021/03/26 04:55:36;;;;;;;;;;;4.00;99.90;;;;;;5075537;28;19908;-77
2021/03/26 04:58:08;;;;;;;;;;;4.00;99.90;;;;;;5076326;28;19965;-77
2021/03/26 05:00:40;;;;;;;;;;;4.00;99.90;;;;;;5075611;28;19912;-77
2021/03/26 05:03:13;;;;;;;;;;;4.00;99.90;;;;;;5075469;28;19908;-78
2021/03/26 05:05:50;;;;;;;;;;;3.90;99.90;;;;;;5074466;28;19910;-78
2021/03/26 05:08:16;;;;;;;;;;;4.00;99.90;;;;;;5075076;28;19957;-77
2021/03/26 05:10:42;;;;;;;;;;;3.80;99.90;;;;;;5074827;28;20363;-79
2021/03/26 05:13:13;;;;;;;;;;;3.90;99.90;;;;;;5075364;28;19966;-78
2021/03/26 05:15:41;;;;;;;;;;;3.90;99.90;;;;;;5072769;28;20287;-77
2021/03/26 05:18:09;;;;;;;;;;;3.90;99.90;;;;;;5072975;28;19930;-78
2021/03/26 05:20:48;;;;;;;;;;;4.10;99.90;;;;;;5073253;28;19911;-79
2021/03/26 05:23:19;;;;;;;;;;;4.20;99.90;;;;;;5074154;28;20368;-77
2021/03/26 05:25:46;;;;;;;;;;;4.30;99.90;;;;;;5073949;28;19909;-79
2021/03/26 05:28:13;;;;;;;;;;;4.40;99.90;;;;;;5073288;28;20343;-78
2021/03/26 05:30:40;;;;;;;;;;;4.40;99.90;;;;;;5072842;28;19904;-80
2021/03/26 05:33:09;;;;;;;;;;;4.40;99.90;;;;;;5074197;28;20050;-78
2021/03/26 05:35:46;;;;;;;;;;;4.50;99.90;;;;;;5072813;28;19904;-77
2021/03/26 05:38:16;;;;;;;;;;;4.50;99.90;;;;;;5072909;28;19958;-77
2021/03/26 05:40:53;;;;;;;;;;;4.60;99.90;;;;;;5074492;28;19911;-79
2021/03/26 05:43:37;;;;;;;;;;;4.70;99.90;;;;;;5075556;28;19916;-79
2021/03/26 05:46:11;;;;;;;;;;;4.80;99.90;;;;;;5073695;28;20022;-77
2021/03/26 05:48:43;;;;;;;;;;;4.90;99.90;;;;;;5073380;28;20352;-78
2021/03/26 05:51:21;;;;;;;;;;;5.00;99.90;;;;;;5072311;28;19904;-77
2021/03/26 05:53:47;;;;;;;;;;;5.10;99.90;;;;;;5072079;28;19912;-77
2021/03/26 05:56:31;;;;;;;;;;;5.20;99.90;;;;;;5072496;28;20326;-78
2021/03/26 05:59:01;;;;;;;;;;;5.40;99.90;;;;;;5071376;28;19939;-78
2021/03/26 06:01:35;;;;;;;;;;;5.60;99.90;;;;;;5071316;28;20407;-77
2021/03/26 06:04:19;;;;;;;;;;;5.70;99.90;;;;;;5072024;28;19915;-77
2021/03/26 06:06:44;;;;;;;;;;;5.80;99.90;;;;;;5070645;28;19911;-77
2021/03/26 06:09:22;;;;;;;;;;;6.00;99.90;;;;;;5070979;28;20003;-78
2021/03/26 06:11:56;;;;;;;;;;;6.20;99.90;;;;;;5072304;28;20003;-78
2021/03/26 06:14:22;;;;;;;;;;;6.40;99.90;;;;;;5071051;28;19961;-78
2021/03/26 06:17:07;;;;;;;;;;;6.60;99.90;;;;;;5072243;28;19905;-78
2021/03/26 06:19:32;;;;;;;;;;;6.70;99.90;;;;;;5071052;28;19911;-78
2021/03/26 06:22:01;;;;;;;;;;;6.60;99.90;;;;;;5071828;28;20297;-79
2021/03/26 06:24:41;;;;;;;;;;;6.80;99.90;;;;;;5070241;28;19913;-80
2021/03/26 06:27:07;;;;;;;;;;;6.90;99.90;;;;;;5061493;28;19911;-77
2021/03/26 06:29:32;;;;;;;;;;;7.20;99.90;;;;;;5059081;28;19916;-77
2021/03/26 06:32:07;;;;;;;;;;;7.30;99.90;;;;;;5054079;28;20368;-78
2021/03/26 06:34:52;;;;;;;;;;;7.40;99.90;;;;;;5051528;28;19904;-78
2021/03/26 06:37:37;;;;;;;;;;;7.60;99.90;;;;;;5040886;28;19909;-78
2021/03/26 06:40:12;;;;;;;;;;;7.60;99.90;;;;;;5050301;28;19958;-79
2021/03/26 06:42:58;;;;;;;;;;;7.80;99.90;;;;;;5051518;28;19913;-78
2021/03/26 06:45:35;;;;;;;;;;;7.90;99.90;;;;;;5057122;28;19993;-79
2021/03/26 06:48:19;;;;;;;;;;;8.00;99.90;;;;;;5058015;28;19912;-78
2021/03/26 06:51:04;;;;;;;;;;;8.10;99.90;;;;;;5062955;28;19916;-79
2021/03/26 06:53:50;;;;;;;;;;;8.30;99.90;;;;;;5062895;28;19987;-79
2021/03/26 06:56:15;;;;;;;;;;;8.30;99.90;;;;;;5070188;28;19987;-78
2021/03/26 06:58:56;;;;;;;;;;;8.40;99.90;;;;;;5072193;28;19951;-78
2021/03/26 07:01:21;;;;;;;;;;;8.60;99.90;;;;;;5072277;28;19904;-77
2021/03/26 07:04:02;;;;;;;;;;;8.80;99.90;;;;;;5070875;28;20453;-80
2021/03/26 07:06:46;;;;;;;;;;;8.90;99.90;;;;;;5071226;28;19904;-78
2021/03/26 07:09:23;;;;;;;8.90;4.70;;;11.30;99.90;;;;;;5072589;28;19904;-77
2021/03/26 07:11:58;;;;;;;8.45;5.30;;;13.50;99.90;;;;;;5071601;28;20020;-79
2021/03/26 07:14:42;;;;;;;12.38;4.68;;;15.90;99.90;;;;;;5072910;28;20383;-79
2021/03/26 07:17:46;;;;;;;8.73;4.47;;;17.70;99.90;;;;;;5072756;28;20549;-77
2021/03/26 07:20:31;;;;;;;5.63;3.73;;;18.90;97.40;;;;;;5076459;28;20387;-79
2021/03/26 07:23:29;;;;;;;7.65;5.05;;;19.00;93.00;;;;;;5074540;28;20027;-78
2021/03/26 07:26:14;;;;;;;8.38;4.22;;;19.40;90.00;;;;;;5074572;28;20104;-78
2021/03/26 07:28:57;;;;;;;7.20;4.38;;;20.20;87.60;;;;;;5074319;28;20021;-77
2021/03/26 07:31:55;;;;;;;7.95;4.55;;;19.70;88.40;;;;;;5076632;28;20020;-79
2021/03/26 07:34:40;;;;;;;5.15;4.00;;;19.60;85.30;;;;;;5069511;28;20027;-78
2021/03/26 07:37:17;;;;;;;8.52;4.78;;;19.80;85.10;;;;;;5066889;28;20020;-78
2021/03/26 07:39:56;;;;;;;5.88;3.58;;;20.60;77.20;;;;;;5073791;28;20436;-77
2021/03/26 07:42:45;;;;;;;8.93;4.85;;;20.40;74.80;;;;;;5075301;28;20031;-77
2021/03/26 07:45:40;;;;;;;5.53;3.78;;;21.10;72.60;;;;;;5074948;28;20028;-78
2021/03/26 07:48:38;;;;;;;6.15;4.15;;;21.80;69.20;;;;;;5068052;28;20403;-77
2021/03/26 07:51:29;;;;;;;6.50;4.30;;;21.50;68.50;;;;;;5067604;28;20431;-79
2021/03/26 07:54:22;;;;;;;6.53;4.28;;;21.90;67.50;;;;;;5074725;28;20094;-77
2021/03/26 07:57:09;;;;;;;8.00;4.20;;;23.80;60.30;;;;;;5074557;28;20028;-77
2021/03/26 07:59:59;;;;;;;5.25;3.88;;;23.10;60.40;;;;;;5073557;28;20024;-79
2021/03/26 08:02:40;;;;;;;5.60;3.80;;;21.50;63.10;;;;;;5073281;28;20039;-75
2021/03/26 08:05:42;;;;;;;7.45;4.10;;;22.20;63.10;;;;;;5072805;28;20027;-75
2021/03/26 08:08:24;;;;;;;;;;;22.90;59.20;;;;;;5072477;28;20040;-74
2021/03/26 08:10:51;;;;;;;7.80;3.90;;;21.40;65.30;;;;;;5074689;28;19911;-76
2021/03/26 08:13:29;;;;;;;;;;;22.00;67.30;;;;;;5073208;28;20032;-76
2021/03/26 08:16:00;;;;;;;6.40;3.55;;;22.60;61.90;;;;;;5072711;28;19918;-76
2021/03/26 08:18:38;;;;;;;6.18;4.43;;;24.10;61.10;;;;;;5074271;28;20024;-76
2021/03/26 08:21:18;;;;;;;7.15;4.30;;;24.70;55.30;;;;;;5072760;28;20029;-77
2021/03/26 08:24:02;;;;;;;7.68;4.13;;;24.10;54.90;;;;;;5073785;28;20084;-77
2021/03/26 08:26:47;;;;;;;5.18;3.92;;;23.60;56.60;;;;;;5073935;28;20020;-77
2021/03/26 08:29:24;;;;;;;6.22;4.22;;;24.40;55.90;;;;;;5072184;28;20051;-77
2021/03/26 08:32:26;;;;;;;5.82;3.63;;;24.10;56.10;;;;;;5072652;28;20025;-76
2021/03/26 08:35:25;;;;;;;6.57;4.13;;;24.40;57.00;;;;;;5072468;28;20021;-78
2021/03/26 08:38:15;;;;;;;5.55;3.85;;;23.10;57.90;;;;;;5072775;28;20032;-75
2021/03/26 08:40:57;;;;;;;6.88;4.40;;;23.70;56.90;;;;;;5072484;28;20024;-76
2021/03/26 08:43:25;;;;;;;5.25;4.25;;;24.20;56.00;;;;;;5072558;28;20255;-76
2021/03/26 08:46:07;;;;;;;5.75;4.10;;;24.80;55.70;;;;;;5072116;28;20480;-77
2021/03/26 08:49:13;;;;;;;5.72;4.32;;;24.50;54.10;;;;;;5073320;28;20016;-76
2021/03/26 08:52:06;;;;;;;6.20;4.07;;;24.80;55.50;;;;;;5072202;28;20048;-76
2021/03/26 08:55:05;;;;;;;6.60;4.82;;;26.40;52.10;;;;;;5073558;28;20035;-78
2021/03/26 08:57:48;;;;;;;5.93;4.03;;;25.20;52.40;;;;;;5073581;28;20021;-78
2021/03/26 09:00:22;;;;;;;;;;;25.90;51.70;;;;;;5073843;28;20033;-77
2021/03/26 09:03:07;;;;;;;;;;;23.80;54.10;;;;;;5073809;28;19920;-78
2021/03/26 09:05:46;;;;;;;;;;;22.10;57.40;;;;;;5072219;28;19919;-75
2021/03/26 09:08:18;;;;;;;;;;;23.60;58.30;;;;;;5073702;28;20313;-75
2021/03/26 09:11:02;;;;;;;;;;;25.00;54.20;;;;;;5072355;28;19908;-77
2021/03/26 09:13:40;;;;;;;;;;;26.40;52.10;;;;;;5072033;28;19963;-77
2021/03/26 09:16:16;;;;;;;;;;;27.50;51.70;;;;;;5071831;28;19999;-77
2021/03/26 09:18:58;;;;;;;;;;;27.20;47.80;;;;;;5073484;28;19931;-76
2021/03/26 09:21:53;;;;;;;6.22;4.57;;;25.60;50.60;;;;;;5073103;28;19908;-77
2021/03/26 09:24:25;;;;;;;6.10;4.60;;;26.30;51.80;;;;;;5072519;28;20513;-77
2021/03/26 09:27:01;;;;;;;4.65;3.58;;;27.10;51.70;;;;;;5072940;28;20024;-76
2021/03/26 09:29:42;;;;;;;6.70;4.70;;;28.00;50.40;;;;;;5057860;28;20484;-76
2021/03/26 09:32:18;;;;;;;5.25;3.88;;;27.70;48.50;;;;;;5092133;28;20059;-76
2021/03/26 09:34:49;;;;;;;;;;;27.00;49.20;;;;;;5093299;28;20028;-75
2021/03/26 09:37:18;;;;;;;5.18;4.30;;;27.50;49.50;;;;;;5092959;28;19904;-77
2021/03/26 09:39:49;;;;;;;6.13;3.47;;;27.40;48.30;;;;;;5090677;28;20131;-78
2021/03/26 09:42:47;;;;;;;7.22;4.68;;;27.10;48.40;;;;;;5092742;28;20085;-78
2021/03/26 09:45:28;;;;;;;5.03;4.28;;;27.90;49.10;;;;;;5092540;28;20475;-77
2021/03/26 09:48:19;;;;;;;5.05;4.10;;;26.60;47.80;;;;;;5091691;28;20052;-80
2021/03/26 09:51:13;;;;;;;5.55;3.65;;;27.10;48.00;;;;;;5091537;28;20066;-76
2021/03/26 09:53:41;;;;;;;7.88;4.03;;;27.90;48.80;;;;;;5091377;28;20429;-77
2021/03/26 09:56:31;;;;;;;4.72;3.78;;;28.80;47.00;;;;;;5092319;28;20016;-76
2021/03/26 09:59:11;;;;;;;6.53;4.40;;;28.60;48.80;;;;;;5091455;28;20032;-77
2021/03/26 10:01:53;;;;;;;5.85;3.90;;;27.20;46.20;;;;;;5091200;28;20396;-77
2021/03/26 10:04:30;;;;;;;6.68;4.75;;;26.70;47.40;;;;;;5091096;28;20030;-79
2021/03/26 10:07:24;;;;;;;5.03;3.88;;;26.00;49.00;;;;;;5093106;28;20439;-78
2021/03/26 10:12:47;;;;;;;5.43;3.72;;;27.20;48.00;;;;;;5092733;28;20071;-76
2021/03/26 10:15:27;;;;;;;5.10;3.53;;;27.40;48.30;;;;;;5090817;28;20487;-77
2021/03/26 10:18:07;;;;;;;5.72;3.90;;;27.80;47.40;;;;;;5092288;28;20056;-76
2021/03/26 10:20:44;;;;;;;7.72;4.32;;;28.50;46.80;;;;;;5090904;28;20081;-78
2021/03/26 10:23:34;;;;;;;5.32;3.97;;;28.40;47.20;;;;;;5091067;28;20544;-79
2021/03/26 10:26:21;;;;;;;4.47;3.65;;;29.30;45.00;;;;;;5090608;28;20302;-77
2021/03/26 10:28:56;;;;;;;7.95;4.55;;;28.50;45.70;;;;;;5071311;28;20398;-78
2021/03/26 10:31:32;;;;;;;5.38;4.30;;;27.60;46.30;;;;;;5051836;28;20024;-78
2021/03/26 10:34:01;;;;;;;9.55;5.28;;;27.60;48.70;;;;;;5050462;28;20128;-77
2021/03/26 10:36:52;;;;;;;6.75;5.00;;;28.20;47.90;;;;;;5050239;28;20503;-77
2021/03/26 10:39:20;;;;;;;;;;;29.10;44.70;;;;;;5050922;28;20025;-77
2021/03/26 10:41:46;;;;;;;;;;;27.00;47.60;;;;;;5051957;28;19905;-77
2021/03/26 10:44:21;;;;;;;;;;;27.40;47.90;;;;;;5059242;28;19909;-79
2021/03/26 10:46:49;;;;;;;;;;;28.40;47.50;;;;;;5057461;28;20295;-80
2021/03/26 10:49:31;;;;;;;;;;;29.10;46.90;;;;;;5049521;23;19960;-80
2021/03/26 10:52:03;;;;;;;;;;;28.50;46.60;;;;;;5032318;28;19955;-81
2021/03/26 10:54:44;;;;;;;;;;;28.00;46.90;;;;;;5034643;28;19905;-78
2021/03/26 10:57:10;;;;;;;6.63;4.28;;;27.00;45.10;;;;;;5034529;28;20281;-80
2021/03/26 10:59:54;;;;;;;6.20;4.80;;;26.50;48.90;;;;;;5034802;28;20526;-78
2021/03/26 11:02:32;;;;;;;7.47;4.43;;;27.80;48.20;;;;;;5034470;28;20127;-80
2021/03/26 11:05:13;;;;;;;6.65;4.30;;;27.70;46.10;;;;;;5034390;28;20017;-80
2021/03/26 11:08:03;;;;;;;5.72;4.43;;;27.10;48.80;;;;;;5034986;28;20026;-79
2021/03/26 11:10:51;;;;;;;6.75;4.20;;;27.20;47.90;;;;;;5024435;28;20032;-80
2021/03/26 11:13:43;;;;;;;;;;;26.90;45.90;;;;;;5035991;28;20033;-80
2021/03/26 11:16:22;;;;;;;;;;;26.20;47.60;;;;;;5032990;28;19905;-77
2021/03/26 11:18:47;;;;;;;;;;;26.40;48.00;;;;;;5038071;28;19912;-82
2021/03/26 11:21:15;;;;;;;;;;;24.80;52.00;;;;;;5035935;28;19905;-80
2021/03/26 11:23:52;;;;;;;5.20;4.10;;;24.40;50.90;;;;;;5038231;28;19909;-81
2021/03/26 11:26:33;;;;;;;5.40;4.15;;;25.30;51.50;;;;;;5040253;28;20036;-81
2021/03/26 11:29:21;;;;;;;6.60;4.38;;;24.40;51.10;;;;;;5035210;28;20017;-79
2021/03/26 11:32:02;;;;;;;5.15;4.00;;;23.80;51.30;;;;;;5031425;28;20387;-79
2021/03/26 11:34:34;;;;;;;4.88;3.90;;;24.50;53.40;;;;;;5032875;28;20032;-80
2021/03/26 11:37:05;;;;;;;4.87;3.80;;;25.40;47.50;;;;;;5033382;28;20383;-78
2021/03/26 11:39:54;;;;;;;6.00;3.65;;;25.90;49.10;;;;;;5031096;28;20053;-77
2021/03/26 11:42:49;;;;;;;5.80;3.70;;;25.60;49.80;;;;;;5013187;28;20044;-78
2021/03/26 11:45:36;;;;;;;4.22;3.60;;;26.20;48.00;;;;;;5012339;28;20022;-79
2021/03/26 11:48:20;;;;;;;5.95;3.65;;;25.90;48.10;;;;;;5012919;28;20522;-79
2021/03/26 11:50:49;;;;;;;4.30;3.40;;;25.00;49.70;;;;;;5012818;28;20483;-80
2021/03/26 11:53:44;;;;;;;3.90;3.22;;;24.30;49.00;;;;;;5012920;28;20101;-80
2021/03/26 11:56:28;;;;;;;4.78;3.13;;;24.70;46.90;;;;;;5016809;28;20125;-78
2021/03/26 11:59:12;;;;;;;5.32;3.70;;;24.80;50.70;;;;;;5036922;28;20462;-77
2021/03/26 12:01:44;;;;;;;5.03;3.90;;;24.80;49.80;;;;;;5032609;28;20509;-79
2021/03/26 12:04:37;;;;;;;5.88;4.22;;;24.60;47.60;;;;;;5021761;28;20029;-79
2021/03/26 12:07:09;;;;;;;;;;;24.70;49.00;;;;;;5032442;28;20014;-79
2021/03/26 12:09:51;;;;;;;6.13;3.90;;;22.80;49.90;;;;;;5032172;28;19932;-80
2021/03/26 12:12:44;;;;;;;7.45;4.38;;;22.60;56.30;;;;;;5031596;28;20034;-80
2021/03/26 12:15:27;;;;;;;5.38;3.53;;;23.60;52.10;;;;;;5031384;28;20390;-80
2021/03/26 12:18:15;;;;;;;7.45;4.10;;;23.50;53.30;;;;;;5031641;28;20126;-78
2021/03/26 12:20:42;;;;;;;4.93;3.85;;;23.10;52.20;;;;;;5023525;28;20180;-78
2021/03/26 12:23:19;;;;;;;6.35;3.88;;;22.70;55.40;;;;;;5024229;28;20141;-77
2021/03/26 12:25:53;;;;;;;6.68;4.32;;;22.50;53.90;;;;;;5010865;28;20026;-79
2021/03/26 12:28:42;;;;;;;6.75;4.00;;;22.30;52.80;;;;;;5017482;28;20029;-78
2021/03/26 12:31:48;;;;;;;8.02;3.97;;;21.30;55.20;;;;;;5031606;28;20064;-79
2021/03/26 12:34:19;;;;;;;;;;;21.50;56.30;;;;;;4955792;28;20022;-78
2021/03/26 12:37:08;;;;;;;;;;;21.50;55.50;;;;;;5018667;28;19955;-78
2021/03/26 12:39:35;;;;;;;;;;;21.60;55.20;;;;;;5024690;28;19928;-79
2021/03/26 12:42:19;;;;;;;;;;;21.50;55.70;;;;;;5031496;28;20388;-78
2021/03/26 12:44:51;;;;;;;;;;;21.80;56.90;;;;;;5032467;28;19952;-77
2021/03/26 12:47:24;;;;;;;;;;;21.30;57.90;;;;;;5025386;28;19905;-77
2021/03/26 12:49:53;;;;;;;;;;;20.30;56.60;;;;;;5026674;28;19917;-77
2021/03/26 12:52:22;;;;;;;;;;;19.10;61.90;;;;;;5034454;28;19909;-80
2021/03/26 12:54:53;;;;;;;;;;;19.20;66.80;;;;;;5033130;28;20406;-77
2021/03/26 12:57:26;;;;;;;;;;;19.00;66.80;;;;;;5033768;28;19911;-77
2021/03/26 12:59:55;;;;;;;;;;;19.10;66.20;;;;;;5051987;28;20350;-79
2021/03/26 13:02:21;;;;;;;;;;;19.00;61.40;;;;;;5052380;28;19924;-77
2021/03/26 13:04:52;;;;;;;;;;;19.10;67.50;;;;;;5051621;28;19927;-79
2021/03/26 13:07:28;;;;;;;;;;;19.70;65.10;;;;;;5031259;28;19906;-77
2021/03/26 13:10:13;;;;;;;;;;;19.50;61.80;;;;;;5012092;28;20008;-78
2021/03/26 13:12:39;;;;;;;;;;;19.10;63.80;;;;;;5011946;28;19905;-77
2021/03/26 13:15:17;;;;;;;;;;;19.00;65.40;;;;;;5010083;28;19912;-80
2021/03/26 13:17:43;;;;;;;;;;;18.80;62.90;;;;;;5011780;28;20414;-78
2021/03/26 13:20:09;;;;;;;;;;;18.10;70.50;;;;;;5011420;28;19905;-77
2021/03/26 13:22:46;;;;;;;;;;;18.10;67.40;;;;;;5011746;28;20020;-78
2021/03/26 13:25:19;;;;;;;;;;;18.30;67.20;;;;;;5011163;28;19920;-78
2021/03/26 13:27:51;;;;;;;;;;;18.60;67.40;;;;;;5011477;28;19993;-77
2021/03/26 13:30:23;;;;;;;;;;;19.20;62.40;;;;;;5012186;28;19909;-76
2021/03/26 13:32:54;;;;;;;;;;;20.00;56.60;;;;;;5011744;28;19905;-78
2021/03/26 13:35:22;;;;;;;;;;;20.60;57.10;;;;;;5012180;28;19916;-78
2021/03/26 13:37:53;;;;;;;;;;;20.90;54.90;;;;;;5011934;28;20413;-79
2021/03/26 13:40:21;;;;;;;;;;;21.10;55.20;;;;;;5012920;28;19906;-78
2021/03/26 13:43:01;;;;;;;;;;;21.20;56.50;;;;;;5013201;28;19913;-78
2021/03/26 13:45:28;;;;;;;;;;;21.00;54.60;;;;;;5012993;28;19912;-78
2021/03/26 13:47:55;;;;;;;;;;;20.40;57.20;;;;;;5029632;28;19998;-78
2021/03/26 13:50:29;;;;;;;;;;;19.90;56.30;;;;;;5014124;28;19913;-79
2021/03/26 13:52:55;;;;;;;;;;;19.60;59.40;;;;;;5012929;28;19916;-81
2021/03/26 13:55:23;;;;;;;;;;;19.70;59.80;;;;;;5014441;28;19905;-78
2021/03/26 13:57:56;;;;;;;;;;;19.60;57.50;;;;;;5013198;28;20029;-77
2021/03/26 14:00:26;;;;;;;;;;;19.30;59.00;;;;;;5013109;28;19905;-79
2021/03/26 14:03:18;;;;;;;;;;;18.60;59.40;;;;;;5013212;28;19917;-78
2021/03/26 14:05:45;;;;;;;;;;;18.20;61.00;;;;;;5009669;28;19913;-77
2021/03/26 14:08:14;;;;;;;;;;;18.20;61.40;;;;;;5014017;28;20263;-78
2021/03/26 14:10:51;;;;;;;;;;;18.40;60.80;;;;;;5014300;28;20020;-80
2021/03/26 14:13:20;;;;;;;;;;;18.60;62.20;;;;;;5017417;28;19951;-81
2021/03/26 14:15:45;;;;;;;;;;;18.80;59.50;;;;;;5037006;28;19905;-81
2021/03/26 14:18:20;;;;;;;;;;;18.70;63.20;;;;;;5034249;28;19910;-79
2021/03/26 14:20:47;;;;;;;;;;;18.80;64.50;;;;;;5031060;28;20051;-78
2021/03/26 14:23:36;;;;;;;;;;;18.90;67.00;;;;;;5027566;28;19998;-77
2021/03/26 14:26:16;;;;;;;;;;;18.80;63.20;;;;;;5030784;28;19927;-79
2021/03/26 14:28:50;;;;;;;;;;;18.70;64.10;;;;;;5031249;28;19912;-79
2021/03/26 14:31:22;;;;;;;;;;;18.40;63.40;;;;;;5030849;28;19909;-78
2021/03/26 14:33:57;;;;;;;;;;;18.20;66.00;;;;;;5030121;28;19909;-76
2021/03/26 14:36:46;;;;;;;;;;;18.00;65.70;;;;;;5031830;28;19912;-78
2021/03/26 14:39:28;;;;;;;;;;;18.00;66.80;;;;;;5030281;28;19999;-79
2021/03/26 14:41:58;;;;;;;;;;;18.10;64.90;;;;;;5029903;28;19905;-79
2021/03/26 14:44:25;;;;;;;;;;;18.10;65.80;;;;;;5029466;28;19913;-80